Dades de l'estació automàtica Ulldeter (2.413 m)
Resum diari
16:30 TU| Temperatura mitjana | -0.5 °C | |
|---|---|---|
| Temperatura màxima | 3.5 °C | 11:51 TU |
| Temperatura mínima | -2.2 °C | 4:16 TU |
| Humitat relativa mitjana | 70% | |
| Precipitació acumulada | 4.4 mm | |
| Gruix de neu màxim | 1 cm | |
| Ratxa màxima del vent (10 m) | 55.1 km/h - 291º | 3:06 TU |
| Irradiació solar global | 22.2 MJ/m2 | |
El tram horari està expressat en Temps Universal (TU). Cal sumar una hora en horari d'hivern i dues en horari d'estiu per passar a l'hora oficial.
Ulldeter (2.413 m)
| Municipi | Setcases |
|---|---|
| Comarca | Ripollès |
| Altitud | 2413 m |
| Data alta | 28.09.2011 |
| Estat actual | Operativa |
| Període TU |
TM °C |
TX °C |
TN °C |
HRM % |
PPT mm |
GN cm |
VVM (10 m) km/h |
DVM (10 m) graus |
VVX (10 m) km/h |
RS W/m2 |
|---|---|---|---|---|---|---|---|---|---|---|
| 00:00 - 00:30 | -1.4 | -1.1 | -1.7 | 62 | 0.0 | 1 | 13.7 | 309 | 37.1 | 0 |
| 00:30 - 01:00 | -1.6 | -1.3 | -1.8 | 66 | 0.0 | 1 | 23.0 | 299 | 43.9 | 0 |
| 01:00 - 01:30 | -1.9 | -1.7 | -2.0 | 71 | 0.0 | 1 | 23.0 | 292 | 38.2 | 0 |
| 01:30 - 02:00 | -2.1 | -1.9 | -2.2 | 74 | 0.0 | 1 | 24.5 | 284 | 42.5 | 0 |
| 02:00 - 02:30 | -1.9 | -1.7 | -2.1 | 68 | 0.0 | 1 | 27.0 | 288 | 45.4 | 0 |
| 02:30 - 03:00 | -1.9 | -1.7 | -2.1 | 65 | 0.0 | 1 | 28.4 | 286 | 46.8 | 0 |
| 03:00 - 03:30 | -2.0 | -1.8 | -2.2 | 65 | 0.0 | 1 | 27.7 | 281 | 55.1 | 0 |
| 03:30 - 04:00 | -1.9 | -1.6 | -2.1 | 62 | 0.0 | 1 | 25.9 | 281 | 45.0 | 0 |
| 04:00 - 04:30 | -2.1 | -1.9 | -2.2 | 62 | 0.0 | 1 | 24.5 | 286 | 38.9 | 0 |
| 04:30 - 05:00 | -1.9 | -1.8 | -2.1 | 60 | 0.0 | 1 | 23.8 | 300 | 46.4 | 12 |
| 05:00 - 05:30 | -1.8 | -1.7 | -2.1 | 59 | 0.0 | 1 | 22.3 | 293 | 37.1 | 79 |
| 05:30 - 06:00 | -1.5 | -1.3 | -1.6 | 57 | 0.0 | 1 | 21.2 | 304 | 39.2 | 175 |
| 06:00 - 06:30 | -1.2 | -1.0 | -1.5 | 55 | 0.0 | 1 | 18.4 | 303 | 33.1 | 283 |
| 06:30 - 07:00 | -1.1 | -0.9 | -1.1 | 56 | 0.0 | 1 | 13.0 | 314 | 31.3 | 393 |
| 07:00 - 07:30 | -1.0 | -0.6 | -1.2 | 57 | 0.0 | 1 | 13.3 | 316 | 34.6 | 501 |
| 07:30 - 08:00 | -0.8 | -0.7 | -1.0 | 56 | 0.0 | 1 | 22.3 | 298 | 41.8 | 607 |
| 08:00 - 08:30 | -0.2 | 0.2 | -0.7 | 49 | 0.0 | 1 | 23.4 | 294 | 43.9 | 706 |
| 08:30 - 09:00 | 0.4 | 0.9 | 0.1 | 46 | 0.0 | 1 | 12.2 | 338 | 39.2 | 795 |
| 09:00 - 09:30 | 0.3 | 0.7 | -0.1 | 49 | 0.0 | 1 | 18.7 | 212 | 36.7 | 734 |
| 09:30 - 10:00 | 0.1 | 0.4 | -0.3 | 55 | 0.0 | 1 | 16.9 | 218 | 27.4 | 802 |
| 10:00 - 10:30 | 0.8 | 1.4 | 0.2 | 56 | 0.0 | 1 | 11.9 | 212 | 21.6 | 1.046 |
| 10:30 - 11:00 | 0.8 | 1.7 | 0.4 | 62 | 0.0 | 0 | 9.7 | 223 | 23.4 | 1.073 |
| 11:00 - 11:30 | 1.2 | 2.2 | 0.8 | 66 | 0.0 | 0 | 9.7 | 215 | 19.4 | 1.090 |
| 11:30 - 12:00 | 1.9 | 3.5 | 0.8 | 73 | 0.0 | 0 | 4.0 | 221 | 14.4 | 1.072 |
| 12:00 - 12:30 | 1.6 | 2.4 | 1.1 | 79 | 0.0 | 0 | 3.2 | 197 | 12.2 | 495 |
| 12:30 - 13:00 | 0.8 | 1.8 | 0.1 | 87 | 0.0 | 0 | 6.8 | 186 | 19.1 | 346 |
| 13:00 - 13:30 | 0.4 | 0.9 | -0.2 | 88 | 0.0 | 0 | 10.8 | 211 | 22.0 | 576 |
| 13:30 - 14:00 | -0.2 | 0.5 | -0.5 | 94 | 0.3 | 0 | 8.6 | 208 | 18.4 | 224 |
| 14:00 - 14:30 | 0.3 | 0.6 | -0.1 | 98 | 0.0 | 0 | 3.6 | 115 | 8.3 | 488 |
| 14:30 - 15:00 | 0.2 | 1.2 | -0.1 | 96 | 0.0 | 0 | 6.1 | 180 | 17.6 | 350 |
| 15:00 - 15:30 | 0.4 | 1.3 | 0.0 | 94 | 0.3 | (s/d) | 8.3 | 187 | 18.7 | 225 |
| 15:30 - 16:00 | -0.2 | 0.1 | -0.4 | 100 | 0.6 | (s/d) | 6.8 | 217 | 20.5 | 79 |
| 16:00 - 16:30 | -0.2 | -0.1 | -0.3 | 100 | 1.3 | (s/d) | 5.8 | 180 | 22.3 | 54 |
| 16:30 - 17:00 | -0.2 | 0.1 | -0.3 | 100 | 1.9 | (s/d) | 8.6 | 31 | 31.7 | 132 |
Les dades en taronja només han passat un control de qualitat automàtic. Resta pendent la seva validació definitiva.